createdAt,value
2019-01-18T00:00:44.878Z,6.30
2019-01-18T00:03:12.297Z,7.80
2019-01-18T00:05:40.157Z,7.87
2019-01-18T00:08:07.789Z,7.27
2019-01-18T00:10:35.478Z,7.33
2019-01-18T00:13:03.000Z,5.00
2019-01-18T00:15:30.357Z,7.37
2019-01-18T00:17:57.870Z,5.00
2019-01-18T00:20:25.274Z,4.93
2019-01-18T00:22:53.229Z,4.60
2019-01-18T00:25:20.707Z,4.27
2019-01-18T00:27:48.090Z,4.80
2019-01-18T00:30:15.701Z,6.20
2019-01-18T00:32:43.124Z,7.73
2019-01-18T00:35:10.530Z,7.47
2019-01-18T00:37:37.930Z,7.40
2019-01-18T00:40:06.006Z,7.40
2019-01-18T00:42:33.381Z,7.40
2019-01-18T00:45:00.677Z,6.90
2019-01-18T00:47:28.114Z,6.50
2019-01-18T00:49:55.511Z,6.50
2019-01-18T00:52:22.920Z,5.00
2019-01-18T00:54:50.466Z,7.40
2019-01-18T00:57:17.851Z,7.63
2019-01-18T00:59:45.253Z,6.23
2019-01-18T01:02:12.689Z,7.37
2019-01-18T01:04:40.397Z,17.67
2019-01-18T01:07:08.070Z,12.67
2019-01-18T01:09:35.514Z,8.70
2019-01-18T01:12:04.007Z,7.73
2019-01-18T01:14:31.490Z,6.10
2019-01-18T01:16:58.946Z,6.37
2019-01-18T01:19:26.238Z,7.00
2019-01-18T01:21:53.637Z,5.77
2019-01-18T01:24:21.237Z,6.10
2019-01-18T01:26:48.625Z,6.40
2019-01-18T01:29:16.005Z,5.70
2019-01-18T01:31:43.447Z,5.93
2019-01-18T01:34:10.831Z,8.70
2019-01-18T01:36:38.225Z,8.97
2019-01-18T01:39:08.589Z,8.30
2019-01-18T01:41:35.987Z,6.73
2019-01-18T01:44:03.521Z,6.93
2019-01-18T01:46:31.146Z,6.07
2019-01-18T01:48:58.533Z,5.50
2019-01-18T01:51:25.920Z,8.60
2019-01-18T01:53:53.341Z,6.30
2019-01-18T01:56:20.732Z,7.57
2019-01-18T01:58:48.131Z,5.83
2019-01-18T02:01:15.566Z,6.00
2019-01-18T02:03:42.957Z,6.50
2019-01-18T02:06:10.341Z,7.80
2019-01-18T02:08:37.959Z,8.27
2019-01-18T02:11:05.542Z,6.90
2019-01-18T02:13:32.925Z,6.93
2019-01-18T02:16:00.397Z,7.60
2019-01-18T02:18:27.802Z,7.60
2019-01-18T02:20:55.181Z,7.13
2019-01-18T02:23:22.658Z,5.53
2019-01-18T02:25:50.050Z,6.33
2019-01-18T02:28:17.435Z,5.33
2019-01-18T02:30:44.869Z,5.40
2019-01-18T02:33:12.271Z,5.53
2019-01-18T02:35:39.661Z,5.27
2019-01-18T02:38:07.209Z,5.27
2019-01-18T02:40:34.602Z,5.17
2019-01-18T02:43:01.995Z,4.23
2019-01-18T02:45:29.485Z,4.40
2019-01-18T02:47:56.883Z,5.90
2019-01-18T02:50:24.282Z,6.57
2019-01-18T02:52:51.686Z,5.37
2019-01-18T02:55:19.097Z,4.30
2019-01-18T02:57:46.489Z,5.40
2019-01-18T03:00:22.105Z,4.73
2019-01-18T03:02:49.503Z,6.70
2019-01-18T03:05:19.556Z,6.37
2019-01-18T03:07:47.089Z,5.63
2019-01-18T03:10:27.161Z,7.47
2019-01-18T03:12:54.557Z,6.70
2019-01-18T03:15:21.988Z,5.67
2019-01-18T03:17:49.447Z,4.20
2019-01-18T03:20:17.726Z,6.43
2019-01-18T03:22:45.167Z,6.53
2019-01-18T03:25:15.686Z,4.80
2019-01-18T03:27:43.079Z,5.80
2019-01-18T03:30:18.532Z,5.20
2019-01-18T03:32:42.238Z,11.70
2019-01-18T03:35:11.602Z,7.70
2019-01-18T03:37:38.991Z,6.53
2019-01-18T03:40:08.566Z,6.50
2019-01-18T03:42:35.961Z,8.63
2019-01-18T03:45:05.131Z,6.93
2019-01-18T03:47:32.556Z,7.60
2019-01-18T03:49:59.938Z,7.20
2019-01-18T03:52:27.331Z,7.23
2019-01-18T03:54:54.775Z,6.03
2019-01-18T03:57:22.173Z,6.87
2019-01-18T03:59:49.572Z,3.40
2019-01-18T04:02:17.011Z,2.40
2019-01-18T04:04:44.413Z,1.50
2019-01-18T04:07:11.791Z,1.40
2019-01-18T04:09:39.469Z,1.40
2019-01-18T04:12:08.052Z,1.60
2019-01-18T04:14:35.442Z,1.30
2019-01-18T04:17:02.879Z,1.50
2019-01-18T04:19:30.262Z,1.10
2019-01-18T04:21:57.670Z,1.20
2019-01-18T04:24:25.131Z,0.90
2019-01-18T04:26:52.543Z,1.10
2019-01-18T04:29:19.934Z,1.20
2019-01-18T04:31:47.527Z,1.60
2019-01-18T04:34:14.927Z,1.60
2019-01-18T04:36:42.317Z,1.60
2019-01-18T04:39:09.908Z,1.23
2019-01-18T04:41:37.306Z,1.30
2019-01-18T04:44:04.703Z,1.30
2019-01-18T04:46:32.154Z,1.50
2019-01-18T04:48:59.553Z,1.10
2019-01-18T04:51:26.949Z,1.00
2019-01-18T04:53:54.679Z,1.40
2019-01-18T04:56:22.096Z,1.40
2019-01-18T04:58:49.484Z,1.40
2019-01-18T05:01:16.831Z,1.27
2019-01-18T05:03:44.221Z,1.20
2019-01-18T05:06:11.629Z,1.30
2019-01-18T05:08:39.075Z,1.60
2019-01-18T05:11:06.731Z,1.70
2019-01-18T05:13:34.536Z,1.90
2019-01-18T05:16:03.998Z,2.23
2019-01-18T05:18:31.442Z,2.10
2019-01-18T05:20:58.853Z,2.50
2019-01-18T05:23:26.280Z,13.87
2019-01-18T05:25:53.678Z,1.90
2019-01-18T05:28:21.072Z,12.20
2019-01-18T05:30:48.515Z,3.03
2019-01-18T05:33:15.919Z,2.47
2019-01-18T05:35:43.322Z,2.07
2019-01-18T05:38:11.050Z,3.30
2019-01-18T05:40:38.451Z,2.40
2019-01-18T05:43:05.859Z,2.10
2019-01-18T05:45:33.307Z,2.00
2019-01-18T05:48:00.716Z,2.70
2019-01-18T05:50:29.409Z,2.53
2019-01-18T05:52:57.568Z,4.30
2019-01-18T05:55:24.968Z,2.43
2019-01-18T05:57:52.378Z,2.20
2019-01-18T06:00:55.271Z,2.30
2019-01-18T06:03:22.970Z,2.07
2019-01-18T06:05:50.460Z,2.20
2019-01-18T06:08:17.907Z,2.10
2019-01-18T06:10:45.745Z,2.10
2019-01-18T06:13:13.613Z,3.20
2019-01-18T06:15:41.060Z,4.90
2019-01-18T06:18:08.568Z,2.20
2019-01-18T06:20:35.949Z,2.10
2019-01-18T06:23:03.546Z,5.47
2019-01-18T06:25:30.946Z,1.80
2019-01-18T06:27:58.362Z,1.57
2019-01-18T06:30:45.263Z,3.00
2019-01-18T06:33:13.063Z,2.13
2019-01-18T06:35:40.986Z,3.57
2019-01-18T06:38:08.601Z,2.33
2019-01-18T06:40:36.001Z,1.80
2019-01-18T06:43:03.725Z,3.20
2019-01-18T06:45:31.813Z,2.40
2019-01-18T06:47:59.201Z,6.13
2019-01-18T06:50:26.634Z,8.80
2019-01-18T06:52:54.034Z,4.07
2019-01-18T06:55:21.431Z,3.70
2019-01-18T06:57:48.895Z,3.37
2019-01-18T07:00:35.808Z,2.83
2019-01-18T07:03:04.791Z,3.93
2019-01-18T07:05:32.213Z,8.67
2019-01-18T07:07:59.626Z,4.43
2019-01-18T07:10:27.083Z,8.60
2019-01-18T07:12:54.478Z,13.77
2019-01-18T07:15:23.158Z,3.40
2019-01-18T07:17:50.527Z,6.97
2019-01-18T07:20:18.304Z,4.70
2019-01-18T07:22:45.907Z,8.10
2019-01-18T07:25:15.622Z,3.60
2019-01-18T07:27:43.023Z,2.73
2019-01-18T07:30:19.967Z,3.13
2019-01-18T07:32:47.362Z,3.50
2019-01-18T07:35:16.081Z,5.00
2019-01-18T07:37:43.475Z,4.10
2019-01-18T07:40:11.176Z,2.50
2019-01-18T07:42:38.824Z,2.63
2019-01-18T07:45:10.196Z,2.50
2019-01-18T07:47:37.637Z,2.03
2019-01-18T07:50:05.666Z,2.60
2019-01-18T07:52:33.075Z,2.40
2019-01-18T07:55:00.474Z,2.10
2019-01-18T07:57:28.108Z,1.80
2019-01-18T07:59:55.502Z,2.33
2019-01-18T08:02:22.896Z,1.70
2019-01-18T08:04:50.461Z,2.20
2019-01-18T08:07:17.877Z,1.80
2019-01-18T08:09:45.291Z,2.00
2019-01-18T08:12:12.784Z,2.00
2019-01-18T08:14:40.176Z,2.03
2019-01-18T08:17:07.595Z,2.27
2019-01-18T08:19:35.173Z,2.00
2019-01-18T08:22:02.572Z,2.10
2019-01-18T08:24:31.557Z,2.03
2019-01-18T08:26:58.954Z,1.93
2019-01-18T08:29:26.349Z,1.80
2019-01-18T08:31:53.906Z,2.10
2019-01-18T08:34:21.997Z,1.90
2019-01-18T08:36:49.390Z,1.90
2019-01-18T08:39:17.214Z,1.87
2019-01-18T08:41:44.619Z,2.97
2019-01-18T08:44:12.023Z,2.10
2019-01-18T08:46:39.476Z,2.30
2019-01-18T08:49:06.884Z,1.80
2019-01-18T08:51:34.284Z,3.00
2019-01-18T08:54:01.887Z,3.80
2019-01-18T08:56:29.287Z,2.97
2019-01-18T08:58:56.687Z,2.37
2019-01-18T09:01:24.132Z,2.53
2019-01-18T09:03:51.518Z,2.00
2019-01-18T09:06:18.906Z,1.80
2019-01-18T09:08:46.325Z,2.00
2019-01-18T09:11:13.718Z,2.00
2019-01-18T09:13:41.127Z,1.60
2019-01-18T09:16:08.847Z,1.83
2019-01-18T09:18:36.230Z,1.80
2019-01-18T09:21:03.650Z,1.73
2019-01-18T09:23:31.226Z,2.07
2019-01-18T09:25:58.646Z,1.63
2019-01-18T09:28:26.035Z,2.10
2019-01-18T09:30:53.925Z,1.87
2019-01-18T09:33:21.318Z,1.50
2019-01-18T09:35:49.067Z,1.20
2019-01-18T09:38:17.859Z,1.90
2019-01-18T09:40:45.548Z,1.47
2019-01-18T09:43:12.932Z,1.60
2019-01-18T09:45:40.370Z,1.67
2019-01-18T09:48:09.149Z,1.63
2019-01-18T09:50:36.540Z,1.67
2019-01-18T09:53:05.207Z,1.40
2019-01-18T09:55:34.033Z,1.30
2019-01-18T09:58:01.509Z,1.60
2019-01-18T10:00:31.288Z,1.90
2019-01-18T10:02:59.437Z,3.40
2019-01-18T10:05:26.879Z,1.83
2019-01-18T10:07:54.308Z,2.47
2019-01-18T10:10:21.938Z,1.90
2019-01-18T10:12:49.442Z,1.40
2019-01-18T10:15:22.676Z,1.80
2019-01-18T10:17:50.069Z,2.00
2019-01-18T10:20:17.747Z,2.40
2019-01-18T10:22:46.007Z,4.07
2019-01-18T10:25:14.073Z,1.80
2019-01-18T10:27:41.571Z,1.73
2019-01-18T10:30:13.034Z,1.67
2019-01-18T10:32:40.423Z,1.70
2019-01-18T10:35:08.432Z,2.40
2019-01-18T10:37:35.839Z,2.10
2019-01-18T10:40:04.195Z,1.50
2019-01-18T10:42:31.596Z,2.30
2019-01-18T10:44:59.051Z,1.90
2019-01-18T10:47:26.449Z,1.70
2019-01-18T10:49:53.834Z,1.70
2019-01-18T10:52:21.875Z,1.50
2019-01-18T10:54:49.272Z,1.97
2019-01-18T10:57:16.682Z,1.67
2019-01-18T10:59:44.287Z,1.47
2019-01-18T11:02:11.655Z,1.97
2019-01-18T11:04:39.258Z,1.77
2019-01-18T11:07:06.699Z,1.90
2019-01-18T11:09:34.090Z,1.33
2019-01-18T11:12:01.500Z,1.50
2019-01-18T11:14:29.235Z,1.90
2019-01-18T11:16:56.633Z,1.50
2019-01-18T11:19:24.022Z,1.30
2019-01-18T11:21:51.510Z,1.60
2019-01-18T11:24:18.906Z,1.80
2019-01-18T11:26:46.303Z,1.23
2019-01-18T11:29:13.748Z,1.70
2019-01-18T11:31:41.143Z,1.60
2019-01-18T11:34:08.528Z,1.50
2019-01-18T11:36:36.204Z,1.33
2019-01-18T11:39:05.611Z,1.73
2019-01-18T11:41:33.040Z,2.00
2019-01-18T11:44:00.626Z,2.50
2019-01-18T11:46:28.027Z,2.07
2019-01-18T11:48:55.424Z,1.93
2019-01-18T11:51:22.852Z,1.80
2019-01-18T11:53:50.255Z,1.30
2019-01-18T11:56:17.654Z,1.50
2019-01-18T11:58:45.110Z,1.50
2019-01-18T12:01:12.540Z,1.70
2019-01-18T12:03:39.923Z,1.47
2019-01-18T12:06:07.364Z,1.57
2019-01-18T12:08:34.743Z,1.97
2019-01-18T12:11:02.141Z,2.30
2019-01-18T12:13:29.775Z,2.40
2019-01-18T12:15:57.175Z,2.20
2019-01-18T12:18:24.567Z,2.30
2019-01-18T12:20:52.044Z,2.93
2019-01-18T12:23:19.426Z,2.13
2019-01-18T12:25:46.819Z,3.07
2019-01-18T12:28:14.436Z,1.90
2019-01-18T12:30:41.930Z,2.10
2019-01-18T12:33:09.319Z,1.90
2019-01-18T12:35:36.925Z,1.70
2019-01-18T12:38:04.641Z,2.03
2019-01-18T12:40:32.031Z,2.90
2019-01-18T12:42:59.505Z,1.40
2019-01-18T12:45:26.907Z,1.30
2019-01-18T12:47:54.303Z,1.30
2019-01-18T12:50:30.013Z,1.50
2019-01-18T12:52:57.504Z,1.70
2019-01-18T12:55:24.798Z,1.57
2019-01-18T12:57:52.384Z,1.30
2019-01-18T13:00:20.879Z,1.40
2019-01-18T13:02:48.270Z,1.43
2019-01-18T13:05:18.708Z,1.90
2019-01-18T13:07:46.433Z,2.00
2019-01-18T13:10:13.834Z,1.70
2019-01-18T13:12:41.444Z,1.70
2019-01-18T13:15:15.485Z,1.37
2019-01-18T13:17:42.877Z,1.73
2019-01-18T13:20:10.797Z,2.00
2019-01-18T13:22:38.212Z,2.47
2019-01-18T13:25:08.807Z,2.23
2019-01-18T13:27:36.317Z,2.00
2019-01-18T13:30:06.903Z,1.60
2019-01-18T13:32:34.303Z,1.77
2019-01-18T13:35:02.126Z,4.67
2019-01-18T13:37:29.704Z,1.97
2019-01-18T13:39:57.292Z,2.00
2019-01-18T13:42:24.759Z,1.90
2019-01-18T13:44:52.147Z,1.87
2019-01-18T13:47:20.074Z,1.30
2019-01-18T13:49:47.620Z,2.00
2019-01-18T13:52:15.011Z,3.50
2019-01-18T13:54:42.398Z,4.37
2019-01-18T13:57:12.243Z,4.00
2019-01-18T13:59:39.191Z,3.90
2019-01-18T14:02:06.587Z,4.13
2019-01-18T14:04:34.339Z,4.30
2019-01-18T14:07:01.733Z,4.33
2019-01-18T14:09:29.136Z,4.97
2019-01-18T14:11:56.593Z,4.70
2019-01-18T14:14:24.203Z,4.33
2019-01-18T14:16:51.599Z,3.70
2019-01-18T14:19:19.186Z,6.93
2019-01-18T14:21:46.590Z,7.70
2019-01-18T14:24:13.988Z,6.60
2019-01-18T14:26:41.708Z,5.77
2019-01-18T14:29:09.115Z,5.03
2019-01-18T14:31:36.511Z,4.20
2019-01-18T14:34:04.292Z,4.20
2019-01-18T14:36:31.763Z,4.33
2019-01-18T14:38:59.661Z,3.90
2019-01-18T14:41:30.972Z,4.00
2019-01-18T14:43:56.498Z,6.03
2019-01-18T14:46:23.892Z,5.30
2019-01-18T14:48:51.458Z,5.03
2019-01-18T14:51:18.855Z,5.50
2019-01-18T14:53:46.276Z,5.20
2019-01-18T14:56:13.899Z,4.03
2019-01-18T14:58:41.302Z,3.50
2019-01-18T15:01:08.707Z,4.10
2019-01-18T15:03:36.289Z,4.80
2019-01-18T15:06:03.692Z,4.07
2019-01-18T15:08:31.092Z,3.40
2019-01-18T15:10:58.503Z,3.70
2019-01-18T15:13:25.903Z,2.80
2019-01-18T15:15:53.315Z,3.20
2019-01-18T15:18:22.130Z,3.50
2019-01-18T15:20:49.532Z,3.70
2019-01-18T15:23:16.955Z,4.60
2019-01-18T15:25:46.516Z,4.50
2019-01-18T15:28:13.965Z,6.23
2019-01-18T15:30:41.364Z,5.80
2019-01-18T15:33:09.587Z,4.50
2019-01-18T15:35:37.925Z,3.93
2019-01-18T15:38:10.588Z,3.97
2019-01-18T15:40:42.469Z,4.33
2019-01-18T15:43:11.429Z,4.47
2019-01-18T15:45:38.903Z,4.20
2019-01-18T15:48:06.310Z,4.30
2019-01-18T15:50:35.598Z,5.20
2019-01-18T15:53:03.232Z,4.90
2019-01-18T15:55:30.631Z,4.37
2019-01-18T15:57:58.138Z,5.03
2019-01-18T16:00:37.251Z,7.77
2019-01-18T16:03:05.199Z,8.50
2019-01-18T16:05:32.591Z,8.80
2019-01-18T16:08:00.051Z,7.10
2019-01-18T16:10:27.454Z,8.03
2019-01-18T16:12:55.653Z,5.97
2019-01-18T16:15:28.780Z,5.83
2019-01-18T16:17:56.208Z,6.20
2019-01-18T16:20:23.784Z,6.23
2019-01-18T16:22:52.031Z,7.17
2019-01-18T16:25:24.942Z,6.07
2019-01-18T16:27:52.445Z,6.10
2019-01-18T16:30:20.606Z,6.77
2019-01-18T16:32:47.995Z,7.30
2019-01-18T16:35:16.521Z,7.80
2019-01-18T16:37:46.834Z,6.83
2019-01-18T16:40:20.557Z,6.13
2019-01-18T16:42:51.362Z,6.73
2019-01-18T16:45:18.748Z,7.10
2019-01-18T16:47:46.139Z,7.30
2019-01-18T16:50:13.731Z,7.40
2019-01-18T16:52:41.385Z,5.87
2019-01-18T16:55:09.827Z,6.07
2019-01-18T16:57:37.550Z,4.70
2019-01-18T17:00:13.138Z,5.90
2019-01-18T17:02:40.694Z,5.73
2019-01-18T17:05:08.092Z,7.17
2019-01-18T17:07:35.483Z,7.17
2019-01-18T17:10:03.675Z,7.07
2019-01-18T17:12:31.079Z,6.90
2019-01-18T17:14:58.468Z,6.57
2019-01-18T17:17:26.159Z,4.97
2019-01-18T17:19:53.566Z,4.93
2019-01-18T17:22:20.984Z,6.10
2019-01-18T17:24:48.771Z,5.40
2019-01-18T17:27:16.176Z,6.30
2019-01-18T17:29:43.559Z,7.20
2019-01-18T17:32:11.035Z,6.07
2019-01-18T17:34:38.436Z,5.50
2019-01-18T17:37:10.589Z,5.20
2019-01-18T17:40:03.894Z,5.40
2019-01-18T17:43:01.611Z,5.00
2019-01-18T17:46:14.062Z,5.20
2019-01-18T17:49:19.229Z,7.57
2019-01-18T17:52:17.639Z,8.10
2019-01-18T17:54:52.417Z,6.40
2019-01-18T17:57:48.619Z,6.00
2019-01-18T18:00:55.044Z,5.30
2019-01-18T18:04:01.287Z,6.13
2019-01-18T18:07:10.156Z,7.07
2019-01-18T18:10:04.751Z,6.30
2019-01-18T18:12:48.455Z,5.90
2019-01-18T18:15:45.756Z,6.40
2019-01-18T18:19:00.604Z,8.03
2019-01-18T18:22:06.719Z,7.50
2019-01-18T18:25:04.002Z,7.37
2019-01-18T18:28:01.860Z,6.53
2019-01-18T18:30:44.484Z,6.60
2019-01-18T18:33:56.413Z,6.20
2019-01-18T18:36:59.137Z,6.73
2019-01-18T18:40:08.023Z,5.90
2019-01-18T18:43:00.789Z,6.40
2019-01-18T18:45:51.660Z,6.37
2019-01-18T18:48:52.866Z,5.10
2019-01-18T18:51:57.286Z,4.93
2019-01-18T18:55:04.577Z,6.63
2019-01-18T18:58:21.759Z,5.87
2019-01-18T19:01:37.139Z,5.87
2019-01-18T19:04:53.021Z,5.47
2019-01-18T19:08:00.985Z,4.73
2019-01-18T19:11:10.395Z,5.10
2019-01-18T19:14:08.791Z,5.30
2019-01-18T19:17:14.239Z,5.77
2019-01-18T19:20:10.427Z,5.50
2019-01-18T19:23:08.028Z,5.10
2019-01-18T19:26:19.453Z,5.10
2019-01-18T19:29:43.443Z,5.33
2019-01-18T19:33:10.582Z,5.53
2019-01-18T19:36:07.622Z,6.53
2019-01-18T19:39:10.499Z,4.93
2019-01-18T19:42:24.972Z,5.63
2019-01-18T19:45:21.971Z,6.40
2019-01-18T19:48:27.996Z,4.87
2019-01-18T19:51:38.323Z,4.00
2019-01-18T19:54:49.479Z,4.20
2019-01-18T19:57:52.806Z,4.17
2019-01-18T20:00:49.961Z,3.83
2019-01-18T20:03:47.524Z,3.40
2019-01-18T20:06:52.639Z,3.43
2019-01-18T20:09:52.209Z,3.00
2019-01-18T20:13:13.595Z,2.23
2019-01-18T20:16:11.363Z,2.37
2019-01-18T20:19:27.408Z,2.87
2019-01-18T20:22:33.651Z,3.10
2019-01-18T20:25:49.616Z,2.60
2019-01-18T20:28:33.780Z,2.23
2019-01-18T20:31:44.317Z,2.80
2019-01-18T20:34:37.911Z,2.67
2019-01-18T20:37:44.388Z,2.70
2019-01-18T20:41:10.155Z,1.83
2019-01-18T20:44:20.605Z,1.50
2019-01-18T20:47:11.564Z,2.77
2019-01-18T20:50:30.192Z,2.87
2019-01-18T20:53:20.805Z,2.70
2019-01-18T20:56:32.975Z,3.03
2019-01-18T20:59:35.197Z,2.77
2019-01-18T21:02:56.383Z,3.20
2019-01-18T21:05:49.232Z,2.80
2019-01-18T21:08:54.276Z,4.23
2019-01-18T21:12:11.836Z,3.90
2019-01-18T21:15:17.026Z,3.27
2019-01-18T21:18:04.324Z,2.80
2019-01-18T21:20:53.315Z,2.80
2019-01-18T21:23:47.077Z,2.67
2019-01-18T21:26:44.482Z,2.40
2019-01-18T21:29:49.805Z,2.20
2019-01-18T21:32:45.944Z,2.37
2019-01-18T21:35:42.314Z,1.70
2019-01-18T21:39:01.175Z,2.10
2019-01-18T21:41:51.972Z,2.10
2019-01-18T21:44:57.169Z,1.97
2019-01-18T21:47:51.454Z,2.60
2019-01-18T21:50:54.103Z,2.03
2019-01-18T21:53:40.011Z,2.17
2019-01-18T21:56:43.297Z,2.30
2019-01-18T21:59:31.347Z,3.70
2019-01-18T22:02:40.566Z,2.20
2019-01-18T22:05:38.309Z,2.53
2019-01-18T22:08:24.655Z,4.17
2019-01-18T22:11:23.249Z,2.90
2019-01-18T22:14:40.595Z,2.30
2019-01-18T22:17:55.859Z,1.80
2019-01-18T22:20:54.911Z,9.07
2019-01-18T22:24:01.333Z,3.53
2019-01-18T22:27:07.819Z,2.20
2019-01-18T22:29:55.507Z,2.27
2019-01-18T22:32:54.883Z,2.20
2019-01-18T22:36:08.936Z,2.35
2019-01-18T22:39:39.517Z,2.20
2019-01-18T22:42:44.849Z,2.53
2019-01-18T22:45:37.859Z,2.57
2019-01-18T22:48:37.187Z,2.80
2019-01-18T22:51:31.694Z,2.00
2019-01-18T22:54:50.149Z,2.07
2019-01-18T22:57:59.582Z,2.30
2019-01-18T23:01:10.623Z,2.10
2019-01-18T23:04:03.437Z,2.20
2019-01-18T23:06:56.555Z,1.70
2019-01-18T23:10:00.827Z,1.80
2019-01-18T23:13:09.146Z,1.60
2019-01-18T23:16:06.062Z,1.67
2019-01-18T23:19:08.129Z,2.20
2019-01-18T23:22:23.766Z,2.52
2019-01-18T23:25:22.261Z,2.37
2019-01-18T23:28:12.215Z,2.13
2019-01-18T23:31:04.077Z,2.85
2019-01-18T23:34:09.304Z,4.00
2019-01-18T23:36:58.988Z,3.00
2019-01-18T23:40:11.419Z,2.77
2019-01-18T23:43:13.177Z,2.95
2019-01-18T23:46:23.809Z,2.93
2019-01-18T23:49:21.195Z,2.30
2019-01-18T23:52:26.326Z,2.40
2019-01-18T23:55:35.804Z,2.10
2019-01-18T23:58:51.350Z,2.03
